Time;durP1;ratioP1;P1;durP2;ratioP2;P2;SDS_P1;SDS_P2;PMS_P1;PMS_P2;Temp;Humidity;BMP_temperature;BMP_pressure;BME280_temperature;BME280_humidity;BME280_pressure;Samples;Min_cycle;Max_cycle;Signal;HPM_P1;HPM_P2
2023/01/12 00:00:54;;;;;;;13.60;3.30;;;;;;;;;;6238361;22;20194;-71
2023/01/12 00:03:19;;;;;;;10.97;2.67;;;;;;;;;;6239518;23;20371;-71
2023/01/12 00:05:45;;;;;;;15.30;3.80;;;;;;;;;;6238705;23;20151;-71
2023/01/12 00:08:10;;;;;;;10.10;2.00;;;;;;;;;;6237806;23;20147;-71
2023/01/12 00:10:35;;;;;;;16.63;3.20;;;;;;;;;;6237239;22;20214;-71
2023/01/12 00:13:01;;;;;;;19.23;3.13;;;;;;;;;;6240520;22;20209;-71
2023/01/12 00:16:33;;;;;;;13.57;3.00;;;;;;;;;;6239986;23;20590;-71
2023/01/12 00:18:20;;;;;;;19.73;2.90;;;;;;;;;;6240102;23;20677;-71
2023/01/12 00:20:48;;;;;;;11.80;2.70;;;;;;;;;;6241422;22;20378;-71
2023/01/12 00:23:13;;;;;;;10.17;2.40;;;;;;;;;;6240182;22;20148;-71
2023/01/12 00:25:41;;;;;;;10.90;2.27;;;;;;;;;;6240308;23;20374;-71
2023/01/12 00:28:06;;;;;;;9.37;2.60;;;;;;;;;;6241468;22;20147;-71
2023/01/12 00:30:32;;;;;;;11.67;3.10;;;;;;;;;;6240281;22;20504;-71
2023/01/12 00:32:57;;;;;;;19.33;2.93;;;;;;;;;;6241108;23;20153;-71
2023/01/12 00:35:22;;;;;;;21.87;3.47;;;;;;;;;;6241499;23;20142;-71
2023/01/12 00:37:47;;;;;;;14.67;3.23;;;;;;;;;;6239871;22;20175;-72
2023/01/12 00:45:38;;;;;;;8.13;2.30;;;;;;;;;;6233537;23;20367;-71
2023/01/12 00:48:03;;;;;;;15.77;3.33;;;;;;;;;;6258223;23;20386;-71
2023/01/12 00:50:28;;;;;;;15.30;2.77;;;;;;;;;;6253914;23;20176;-71
2023/01/12 00:52:54;;;;;;;10.00;2.90;;;;;;;;;;6229332;23;20468;-70
2023/01/12 00:55:19;;;;;;;13.03;2.70;;;;;;;;;;6229466;23;20146;-72
2023/01/12 00:57:44;;;;;;;8.83;2.23;;;;;;;;;;6216161;23;20160;-70
2023/01/12 01:00:10;;;;;;;17.80;3.17;;;;;;;;;;6211248;23;20151;-70
2023/01/12 01:02:35;;;;;;;9.83;2.70;;;;;;;;;;6210634;23;20152;-70
2023/01/12 01:05:00;;;;;;;17.60;3.40;;;;;;;;;;6183649;23;20165;-70
2023/01/12 01:07:26;;;;;;;14.80;3.27;;;;;;;;;;6184150;23;20182;-70
2023/01/12 01:09:51;;;;;;;14.90;2.63;;;;;;;;;;6209037;23;20639;-70
2023/01/12 01:12:16;;;;;;;12.50;3.50;;;;;;;;;;6183786;23;20179;-70
2023/01/12 01:14:42;;;;;;;17.90;4.00;;;;;;;;;;6184532;23;20151;-70
2023/01/12 01:17:07;;;;;;;16.53;4.40;;;;;;;;;;6210492;23;20148;-70
2023/01/12 01:19:32;;;;;;;20.83;3.40;;;;;;;;;;6182066;23;20286;-70
2023/01/12 01:21:57;;;;;;;17.40;4.00;;;;;;;;;;6180268;23;20229;-70
2023/01/12 01:24:23;;;;;;;14.40;3.70;;;;;;;;;;6209166;23;20140;-70
2023/01/12 01:26:49;;;;;;;13.60;3.40;;;;;;;;;;6181628;23;20191;-70
2023/01/12 01:29:17;;;;;;;15.20;3.10;;;;;;;;;;6206740;23;20152;-70
2023/01/12 01:31:42;;;;;;;14.60;3.33;;;;;;;;;;6182057;23;20509;-70
2023/01/12 01:34:07;;;;;;;15.40;2.47;;;;;;;;;;6209096;23;20819;-70
2023/01/12 01:36:33;;;;;;;12.23;3.80;;;;;;;;;;6183584;23;20191;-70
2023/01/12 01:38:58;;;;;;;18.70;3.60;;;;;;;;;;6206723;23;20227;-70
2023/01/12 01:41:23;;;;;;;16.97;3.43;;;;;;;;;;6207736;23;20189;-70
2023/01/12 01:43:59;;;;;;;16.83;3.50;;;;;;;;;;6181443;23;20309;-71
2023/01/12 01:46:40;;;;;;;16.80;3.57;;;;;;;;;;6208294;23;20183;-70
2023/01/12 01:49:26;;;;;;;25.63;3.87;;;;;;;;;;6206398;23;20372;-69
2023/01/12 01:51:53;;;;;;;16.43;3.70;;;;;;;;;;6206098;23;20822;-70
2023/01/12 01:54:19;;;;;;;24.80;4.00;;;;;;;;;;6182237;23;20383;-70
2023/01/12 01:56:44;;;;;;;15.87;3.50;;;;;;;;;;6206962;23;20363;-70
2023/01/12 01:59:14;;;;;;;34.07;6.40;;;;;;;;;;6207649;23;20156;-70
2023/01/12 02:01:40;;;;;;;13.90;3.53;;;;;;;;;;6207434;23;20170;-70
2023/01/12 02:04:06;;;;;;;18.43;4.13;;;;;;;;;;6206698;23;20371;-70
2023/01/12 02:06:31;;;;;;;12.43;3.53;;;;;;;;;;6183095;23;20148;-71
2023/01/12 02:08:59;;;;;;;18.67;3.23;;;;;;;;;;6179909;23;20153;-70
2023/01/12 02:16:53;;;;;;;13.73;2.87;;;;;;;;;;6208901;23;20354;-70
2023/01/12 02:19:21;;;;;;;13.90;2.67;;;;;;;;;;6207898;23;20458;-70
2023/01/12 02:21:55;;;;;;;14.33;2.40;;;;;;;;;;6208346;23;20174;-70
2023/01/12 02:24:39;;;;;;;12.87;3.20;;;;;;;;;;6181182;23;20455;-70
2023/01/12 02:27:05;;;;;;;14.23;3.50;;;;;;;;;;6208581;23;20365;-70
2023/01/12 02:29:55;;;;;;;11.43;3.60;;;;;;;;;;6204556;23;20399;-70
2023/01/12 02:32:39;;;;;;;9.83;3.00;;;;;;;;;;6207216;23;20164;-70
2023/01/12 02:35:14;;;;;;;16.13;3.10;;;;;;;;;;6207876;23;20406;-70
2023/01/12 02:37:42;;;;;;;17.77;3.70;;;;;;;;;;6181753;23;20402;-70
2023/01/12 02:40:10;;;;;;;12.03;2.90;;;;;;;;;;6207560;23;20382;-70
2023/01/12 02:42:53;;;;;;;17.30;3.80;;;;;;;;;;6207781;23;21370;-70
2023/01/12 02:45:33;;;;;;;16.57;3.20;;;;;;;;;;6209118;23;20803;-70
2023/01/12 02:48:10;;;;;;;16.03;4.10;;;;;;;;;;6208605;23;20858;-70
2023/01/12 02:50:45;;;;;;;10.33;3.13;;;;;;;;;;6181056;23;20422;-70
2023/01/12 02:53:17;;;;;;;12.50;3.00;;;;;;;;;;6182005;23;20850;-70
2023/01/12 02:55:42;;;;;;;18.50;3.30;;;;;;;;;;6209203;23;20355;-70
2023/01/12 02:58:10;;;;;;;18.23;3.70;;;;;;;;;;6205625;23;20368;-69
2023/01/12 03:00:37;;;;;;;18.23;2.77;;;;;;;;;;6181912;23;20214;-70
2023/01/12 03:03:02;;;;;;;11.43;2.87;;;;;;;;;;6208670;23;20373;-70
2023/01/12 03:05:27;;;;;;;17.87;3.00;;;;;;;;;;6182864;23;20624;-70
2023/01/12 03:07:54;;;;;;;13.20;2.97;;;;;;;;;;6182837;23;20233;-70
2023/01/12 03:12:51;;;;;;;17.53;3.63;;;;;;;;;;6238558;23;20409;-70
2023/01/12 03:15:17;;;;;;;15.20;3.90;;;;;;;;;;6237465;23;20869;-71
2023/01/12 03:17:50;;;;;;;17.83;3.63;;;;;;;;;;6240049;23;20354;-70
2023/01/12 03:20:15;;;;;;;20.60;4.53;;;;;;;;;;6237095;23;20423;-70
2023/01/12 03:22:40;;;;;;;19.60;4.17;;;;;;;;;;6209527;23;20437;-71
2023/01/12 03:25:09;;;;;;;19.23;4.27;;;;;;;;;;6210053;23;20239;-70
2023/01/12 03:27:38;;;;;;;14.03;3.00;;;;;;;;;;6208996;23;20154;-72
2023/01/12 03:30:14;;;;;;;17.43;3.60;;;;;;;;;;6209256;23;20418;-71
2023/01/12 03:32:40;;;;;;;21.47;4.40;;;;;;;;;;6183429;23;20397;-70
2023/01/12 03:35:07;;;;;;;19.17;3.30;;;;;;;;;;6210127;23;20359;-71
2023/01/12 03:37:36;;;;;;;23.30;4.03;;;;;;;;;;6208901;23;20152;-70
2023/01/12 03:40:06;;;;;;;21.40;4.63;;;;;;;;;;6210392;23;20370;-71
2023/01/12 03:42:46;;;;;;;14.03;3.70;;;;;;;;;;6210540;23;20839;-70
2023/01/12 03:45:21;;;;;;;14.43;4.10;;;;;;;;;;6209963;23;20404;-70
2023/01/12 03:47:49;;;;;;;15.50;3.90;;;;;;;;;;6210590;23;20366;-70
2023/01/12 03:50:21;;;;;;;13.00;3.10;;;;;;;;;;6211763;23;20415;-71
2023/01/12 03:52:47;;;;;;;16.70;3.60;;;;;;;;;;6210668;23;20853;-70
2023/01/12 03:55:15;;;;;;;15.13;3.30;;;;;;;;;;6183404;23;20415;-70
2023/01/12 03:57:42;;;;;;;14.93;2.97;;;;;;;;;;6184601;23;20234;-70
2023/01/12 04:00:09;;;;;;;16.90;3.23;;;;;;;;;;6210289;23;20743;-70
2023/01/12 04:02:34;;;;;;;11.30;3.23;;;;;;;;;;6184648;23;20870;-71
2023/01/12 04:05:00;;;;;;;16.27;3.77;;;;;;;;;;6211082;23;20372;-71
2023/01/12 04:07:25;;;;;;;19.47;3.40;;;;;;;;;;6206177;23;20199;-71
2023/01/12 04:09:51;;;;;;;14.93;3.80;;;;;;;;;;6182816;23;20706;-71
2023/01/12 04:12:16;;;;;;;11.60;3.70;;;;;;;;;;6180405;23;20893;-70
2023/01/12 04:14:42;;;;;;;23.33;4.37;;;;;;;;;;6207587;23;20205;-75
2023/01/12 04:17:09;;;;;;;13.83;4.00;;;;;;;;;;6179243;23;20243;-70
2023/01/12 04:19:34;;;;;;;14.30;3.70;;;;;;;;;;6182437;23;20471;-70
2023/01/12 04:24:43;;;;;;;17.93;4.00;;;;;;;;;;6210377;23;20139;-70
2023/01/12 04:27:08;;;;;;;16.70;4.50;;;;;;;;;;6210640;23;20714;-71
2023/01/12 04:29:34;;;;;;;10.10;3.33;;;;;;;;;;6209191;23;20144;-70
2023/01/12 04:31:59;;;;;;;15.87;4.00;;;;;;;;;;6208223;23;20670;-71
2023/01/12 04:34:24;;;;;;;16.47;3.47;;;;;;;;;;6209257;23;20164;-70
2023/01/12 04:36:50;;;;;;;11.20;3.30;;;;;;;;;;6208460;23;20217;-70
2023/01/12 04:39:15;;;;;;;14.87;3.87;;;;;;;;;;6208786;23;20530;-72
2023/01/12 04:41:40;;;;;;;14.07;3.23;;;;;;;;;;6181906;23;20180;-72
2023/01/12 04:44:09;;;;;;;11.97;3.00;;;;;;;;;;6210768;23;20159;-71
2023/01/12 04:46:34;;;;;;;10.87;2.83;;;;;;;;;;6208135;23;20234;-70
2023/01/12 04:48:59;;;;;;;13.47;2.90;;;;;;;;;;6208462;23;20375;-70
2023/01/12 04:51:25;;;;;;;18.77;4.30;;;;;;;;;;6209558;23;20183;-71
2023/01/12 04:53:50;;;;;;;9.50;3.63;;;;;;;;;;6210161;23;20167;-70
2023/01/12 04:56:16;;;;;;;14.90;3.10;;;;;;;;;;6183429;23;20699;-70
2023/01/12 04:58:41;;;;;;;13.90;2.73;;;;;;;;;;6210250;23;20588;-71
2023/01/12 05:01:10;;;;;;;12.97;3.33;;;;;;;;;;6182793;23;20186;-71
2023/01/12 05:03:36;;;;;;;10.20;3.00;;;;;;;;;;6182347;23;20607;-70
2023/01/12 05:06:01;;;;;;;12.43;3.10;;;;;;;;;;6207013;23;20375;-71
2023/01/12 05:11:10;;;;;;;9.57;3.20;;;;;;;;;;6209788;23;20199;-70
2023/01/12 05:13:35;;;;;;;9.27;2.87;;;;;;;;;;6208995;23;20348;-70
2023/01/12 05:16:12;;;;;;;7.87;2.30;;;;;;;;;;6208335;23;20588;-71
2023/01/12 05:18:38;;;;;;;8.00;3.10;;;;;;;;;;6208259;23;20140;-70
2023/01/12 05:21:03;;;;;;;11.80;3.20;;;;;;;;;;6208458;23;20379;-71
2023/01/12 05:23:28;;;;;;;9.07;2.37;;;;;;;;;;6211456;23;20221;-70
2023/01/12 05:25:57;;;;;;;11.23;3.90;;;;;;;;;;6210962;23;20148;-70
2023/01/12 05:28:22;;;;;;;12.40;3.07;;;;;;;;;;6209250;23;20152;-70
2023/01/12 05:30:47;;;;;;;12.83;3.53;;;;;;;;;;6206882;23;20920;-71
2023/01/12 05:33:16;;;;;;;6.00;2.70;;;;;;;;;;6208194;23;20194;-70
2023/01/12 05:35:41;;;;;;;9.23;2.70;;;;;;;;;;6207700;23;20147;-71
2023/01/12 05:38:06;;;;;;;6.50;1.90;;;;;;;;;;6207530;23;20886;-70
2023/01/12 05:40:32;;;;;;;7.03;1.80;;;;;;;;;;6208776;23;20163;-70
2023/01/12 05:45:41;;;;;;;6.60;2.00;;;;;;;;;;6207133;23;20202;-70
2023/01/12 05:48:08;;;;;;;6.13;1.80;;;;;;;;;;6204880;23;20910;-71
2023/01/12 05:50:33;;;;;;;4.53;1.53;;;;;;;;;;6188474;23;20211;-69
2023/01/12 05:52:59;;;;;;;4.73;1.63;;;;;;;;;;6182842;23;20378;-71
2023/01/12 05:55:27;;;;;;;4.70;1.60;;;;;;;;;;6182155;23;20155;-70
2023/01/12 05:57:52;;;;;;;6.23;1.83;;;;;;;;;;6207640;23;20182;-71
2023/01/12 06:02:47;;;;;;;3.10;1.40;;;;;;;;;;6239378;23;20403;-71
2023/01/12 06:05:13;;;;;;;7.70;1.60;;;;;;;;;;6213778;23;20852;-71
2023/01/12 06:07:41;;;;;;;4.87;1.40;;;;;;;;;;6240115;23;20359;-71
2023/01/12 06:10:07;;;;;;;5.23;1.53;;;;;;;;;;6238303;23;20179;-70
2023/01/12 06:15:16;;;;;;;4.80;1.33;;;;;;;;;;6208861;23;20143;-72
2023/01/12 06:17:41;;;;;;;4.10;1.10;;;;;;;;;;6202993;23;20371;-71
2023/01/12 06:20:07;;;;;;;4.90;1.20;;;;;;;;;;6209052;23;20166;-71
2023/01/12 06:22:35;;;;;;;4.80;1.40;;;;;;;;;;6210652;23;20152;-70
2023/01/12 06:25:00;;;;;;;3.47;1.70;;;;;;;;;;6207771;23;20158;-71
2023/01/12 06:27:29;;;;;;;4.27;1.30;;;;;;;;;;6209306;23;20375;-71
2023/01/12 06:29:55;;;;;;;5.17;1.03;;;;;;;;;;6209138;23;20202;-71
2023/01/12 06:32:20;;;;;;;8.20;2.00;;;;;;;;;;6209857;23;20824;-72
2023/01/12 06:34:45;;;;;;;4.10;1.30;;;;;;;;;;6209393;23;20148;-71
2023/01/12 06:37:11;;;;;;;5.43;2.07;;;;;;;;;;6210740;23;20148;-71
2023/01/12 06:39:37;;;;;;;4.50;1.90;;;;;;;;;;6208595;23;20170;-71
2023/01/12 06:44:47;;;;;;;2.60;1.40;;;;;;;;;;6206400;23;20272;-71
2023/01/12 06:47:12;;;;;;;6.40;1.43;;;;;;;;;;6182273;23;20436;-71
2023/01/12 06:49:37;;;;;;;4.30;1.00;;;;;;;;;;6210089;23;20170;-71
2023/01/12 06:52:03;;;;;;;7.47;1.43;;;;;;;;;;6182538;23;20267;-71
2023/01/12 06:54:29;;;;;;;4.67;1.33;;;;;;;;;;6183745;23;20178;-71
2023/01/12 06:56:57;;;;;;;6.73;1.20;;;;;;;;;;6210247;23;20148;-71
2023/01/12 06:59:22;;;;;;;6.30;1.30;;;;;;;;;;6209435;23;20367;-71
2023/01/12 07:01:47;;;;;;;7.60;1.50;;;;;;;;;;6181684;23;20917;-72
2023/01/12 07:04:13;;;;;;;4.60;1.30;;;;;;;;;;6209553;23;20502;-71
2023/01/12 07:06:41;;;;;;;6.93;1.10;;;;;;;;;;6210368;23;20498;-71
2023/01/12 07:09:06;;;;;;;4.10;1.27;;;;;;;;;;6182635;23;20163;-71
2023/01/12 07:11:31;;;;;;;3.87;1.17;;;;;;;;;;6182989;23;20774;-71
2023/01/12 07:13:56;;;;;;;4.33;1.43;;;;;;;;;;6210350;23;20195;-71
2023/01/12 07:16:22;;;;;;;4.00;1.07;;;;;;;;;;6209059;23;20558;-71
2023/01/12 07:18:47;;;;;;;3.57;1.20;;;;;;;;;;6207065;23;20227;-71
2023/01/12 07:21:15;;;;;;;2.83;1.30;;;;;;;;;;6207893;23;20653;-71
2023/01/12 07:23:42;;;;;;;2.57;0.90;;;;;;;;;;6178995;23;20156;-71
2023/01/12 07:26:07;;;;;;;5.13;0.93;;;;;;;;;;6208901;23;20858;-71
2023/01/12 07:28:36;;;;;;;2.73;1.00;;;;;;;;;;6207227;23;20374;-71
2023/01/12 07:31:02;;;;;;;1.67;0.70;;;;;;;;;;6209094;23;20539;-71
2023/01/12 07:33:28;;;;;;;2.90;0.90;;;;;;;;;;6209859;23;20826;-71
2023/01/12 07:35:56;;;;;;;2.57;0.80;;;;;;;;;;6208737;23;20448;-71
2023/01/12 07:38:23;;;;;;;1.37;0.70;;;;;;;;;;6180998;23;20152;-72
2023/01/12 07:40:49;;;;;;;2.83;0.70;;;;;;;;;;6183463;23;20425;-72
2023/01/12 07:43:16;;;;;;;1.13;0.80;;;;;;;;;;6183397;23;20917;-71
2023/01/12 07:45:41;;;;;;;3.60;0.70;;;;;;;;;;6181375;23;20159;-71
2023/01/12 07:48:07;;;;;;;1.97;1.00;;;;;;;;;;6181800;23;20378;-71
2023/01/12 07:50:32;;;;;;;1.30;0.70;;;;;;;;;;6209602;23;20179;-71
2023/01/12 07:53:01;;;;;;;5.40;1.17;;;;;;;;;;6183549;23;20156;-72
2023/01/12 07:55:26;;;;;;;3.67;1.10;;;;;;;;;;6210184;23;20147;-71
2023/01/12 07:57:52;;;;;;;2.73;1.20;;;;;;;;;;6209828;23;20367;-72
2023/01/12 08:00:21;;;;;;;4.20;1.20;;;;;;;;;;6183830;23;20539;-71
2023/01/12 08:02:47;;;;;;;1.20;0.80;;;;;;;;;;6211734;23;20603;-71
2023/01/12 08:05:12;;;;;;;8.80;1.70;;;;;;;;;;6210806;23;20473;-71
2023/01/12 08:07:38;;;;;;;1.90;0.80;;;;;;;;;;6184129;23;20159;-71
2023/01/12 08:10:04;;;;;;;4.53;1.20;;;;;;;;;;6211207;23;20255;-71
2023/01/12 08:12:29;;;;;;;3.37;0.87;;;;;;;;;;6185163;23;20403;-71
2023/01/12 08:14:55;;;;;;;2.83;1.40;;;;;;;;;;6210904;23;20223;-71
2023/01/12 08:17:21;;;;;;;1.87;1.10;;;;;;;;;;6210587;23;20227;-72
2023/01/12 08:19:57;;;;;;;3.53;1.10;;;;;;;;;;6210235;23;20653;-71
2023/01/12 08:22:26;;;;;;;2.43;0.90;;;;;;;;;;6184944;23;20498;-71
2023/01/12 08:24:54;;;;;;;3.23;0.80;;;;;;;;;;6211419;23;20389;-72
2023/01/12 08:27:22;;;;;;;3.90;0.97;;;;;;;;;;6184083;23;20367;-71
2023/01/12 08:29:49;;;;;;;2.67;0.80;;;;;;;;;;6181635;23;20382;-71
2023/01/12 08:32:17;;;;;;;3.53;1.33;;;;;;;;;;6183583;23;20872;-71
2023/01/12 08:34:44;;;;;;;3.87;1.20;;;;;;;;;;6209486;23;20370;-71
2023/01/12 08:37:11;;;;;;;4.33;1.20;;;;;;;;;;6210632;23;20424;-71
2023/01/12 08:39:37;;;;;;;5.40;1.40;;;;;;;;;;6210865;23;20831;-72
2023/01/12 08:42:03;;;;;;;6.93;1.20;;;;;;;;;;6185010;23;20395;-71
2023/01/12 08:44:33;;;;;;;6.23;1.63;;;;;;;;;;6184331;23;20432;-71
2023/01/12 08:46:58;;;;;;;6.57;2.20;;;;;;;;;;6183662;23;20140;-72
2023/01/12 08:49:25;;;;;;;6.00;2.30;;;;;;;;;;6211068;23;20680;-72
2023/01/12 08:51:50;;;;;;;14.90;2.27;;;;;;;;;;6207483;23;20210;-71
2023/01/12 08:54:17;;;;;;;10.13;2.30;;;;;;;;;;6209203;23;20753;-72
2023/01/12 08:56:42;;;;;;;13.00;2.90;;;;;;;;;;6210588;23;20607;-72
2023/01/12 08:59:07;;;;;;;13.47;2.70;;;;;;;;;;6209676;23;20382;-71
2023/01/12 09:01:33;;;;;;;17.43;3.90;;;;;;;;;;6181662;23;20198;-70
2023/01/12 09:03:58;;;;;;;26.57;3.43;;;;;;;;;;6211900;23;20231;-71
2023/01/12 09:06:25;;;;;;;9.90;2.33;;;;;;;;;;6209921;23;20255;-72
2023/01/12 09:08:55;;;;;;;14.57;3.20;;;;;;;;;;6207799;23;20653;-72
2023/01/12 09:11:20;;;;;;;12.93;2.70;;;;;;;;;;6182080;23;20434;-72
2023/01/12 09:13:46;;;;;;;12.03;2.70;;;;;;;;;;6207225;23;20458;-74
2023/01/12 09:16:13;;;;;;;14.23;3.13;;;;;;;;;;6211455;23;20143;-72
2023/01/12 09:18:39;;;;;;;9.57;2.53;;;;;;;;;;6177567;23;20588;-72
2023/01/12 09:21:05;;;;;;;15.10;3.30;;;;;;;;;;6207084;23;20462;-73
2023/01/12 09:23:31;;;;;;;15.67;3.10;;;;;;;;;;6208487;23;20198;-73
2023/01/12 09:26:00;;;;;;;15.90;3.17;;;;;;;;;;6184376;23;20910;-72
2023/01/12 09:28:26;;;;;;;16.43;3.20;;;;;;;;;;6204663;23;20144;-74
2023/01/12 09:30:51;;;;;;;16.13;3.00;;;;;;;;;;6207048;23;21186;-73
2023/01/12 09:33:16;;;;;;;16.00;2.90;;;;;;;;;;6210730;23;20151;-73
2023/01/12 09:35:43;;;;;;;13.00;3.33;;;;;;;;;;6183217;23;20144;-74
2023/01/12 09:38:08;;;;;;;11.67;3.27;;;;;;;;;;6210964;23;20151;-72
2023/01/12 09:40:40;;;;;;;8.27;2.67;;;;;;;;;;6211812;23;20395;-72
2023/01/12 09:48:35;;;;;;;11.20;2.60;;;;;;;;;;6211599;23;20355;-73
2023/01/12 09:51:08;;;;;;;14.30;2.80;;;;;;;;;;6210210;23;20415;-72
2023/01/12 09:53:35;;;;;;;8.50;2.03;;;;;;;;;;6210965;23;20128;-73
2023/01/12 09:56:07;;;;;;;9.63;2.63;;;;;;;;;;6211834;23;20417;-73
2023/01/12 09:58:51;;;;;;;11.17;2.00;;;;;;;;;;6185915;23;20924;-72
2023/01/12 10:01:17;;;;;;;12.63;2.50;;;;;;;;;;6210849;23;20402;-72
2023/01/12 10:03:42;;;;;;;12.60;3.10;;;;;;;;;;6185362;23;20437;-73
2023/01/12 10:06:13;;;;;;;10.17;3.47;;;;;;;;;;6211269;23;20367;-72
2023/01/12 10:08:44;;;;;;;8.90;2.30;;;;;;;;;;6209985;23;20132;-73
2023/01/12 10:11:24;;;;;;;10.33;3.03;;;;;;;;;;6182386;23;20933;-73
2023/01/12 10:14:08;;;;;;;13.17;2.37;;;;;;;;;;6184744;23;20764;-73
2023/01/12 10:16:36;;;;;;;10.03;2.60;;;;;;;;;;6210291;23;20371;-73
2023/01/12 10:19:06;;;;;;;10.00;2.43;;;;;;;;;;6209748;23;20370;-73
2023/01/12 10:21:31;;;;;;;9.40;2.37;;;;;;;;;;6211311;23;20383;-73
2023/01/12 10:23:57;;;;;;;11.00;2.10;;;;;;;;;;6185039;23;20395;-73
2023/01/12 10:26:24;;;;;;;10.57;2.00;;;;;;;;;;6211170;23;20148;-73
2023/01/12 10:28:53;;;;;;;11.70;2.20;;;;;;;;;;6183484;23;20238;-73
2023/01/12 10:31:20;;;;;;;9.93;2.27;;;;;;;;;;6211703;23;20425;-73
2023/01/12 10:34:01;;;;;;;11.33;3.00;;;;;;;;;;6210308;23;20387;-74
2023/01/12 10:36:28;;;;;;;10.80;2.20;;;;;;;;;;6211552;23;20398;-73
2023/01/12 10:38:55;;;;;;;18.27;3.57;;;;;;;;;;6183681;23;20462;-74
2023/01/12 10:41:27;;;;;;;9.57;2.20;;;;;;;;;;6181182;23;20395;-73
2023/01/12 10:43:59;;;;;;;11.47;2.53;;;;;;;;;;6184495;23;20379;-73
2023/01/12 10:46:31;;;;;;;8.80;2.20;;;;;;;;;;6210438;23;20466;-73
2023/01/12 10:49:15;;;;;;;14.00;2.47;;;;;;;;;;6210762;23;21243;-72
2023/01/12 10:51:51;;;;;;;7.90;2.37;;;;;;;;;;6208802;23;20423;-73
2023/01/12 10:54:18;;;;;;;8.40;2.17;;;;;;;;;;6184906;23;20371;-73
2023/01/12 10:57:03;;;;;;;9.37;2.10;;;;;;;;;;6185331;23;20371;-73
2023/01/12 10:59:33;;;;;;;12.63;2.50;;;;;;;;;;6210332;23;20387;-72
2023/01/12 11:02:04;;;;;;;13.30;2.90;;;;;;;;;;6184526;23;20414;-73
2023/01/12 11:04:30;;;;;;;10.73;2.60;;;;;;;;;;6209658;23;20390;-72
2023/01/12 11:06:59;;;;;;;9.60;2.30;;;;;;;;;;6183677;23;20846;-73
2023/01/12 11:09:26;;;;;;;9.93;2.73;;;;;;;;;;6183238;23;20386;-73
2023/01/12 11:11:59;;;;;;;17.03;3.90;;;;;;;;;;6208927;23;20448;-73
2023/01/12 11:14:26;;;;;;;9.43;2.23;;;;;;;;;;6211043;23;20367;-73
2023/01/12 11:16:51;;;;;;;18.33;3.30;;;;;;;;;;6206787;23;20822;-73
2023/01/12 11:19:16;;;;;;;9.13;2.63;;;;;;;;;;6177755;23;20387;-73
2023/01/12 11:21:44;;;;;;;13.20;3.20;;;;;;;;;;6208599;23;20174;-73
2023/01/12 11:24:20;;;;;;;10.80;2.73;;;;;;;;;;6184829;23;20202;-73
2023/01/12 11:26:55;;;;;;;10.60;3.40;;;;;;;;;;6211710;23;20394;-72
2023/01/12 11:29:20;;;;;;;13.90;2.97;;;;;;;;;;6210501;23;20454;-73
2023/01/12 11:31:46;;;;;;;9.83;1.97;;;;;;;;;;6213284;23;20465;-73
2023/01/12 11:34:17;;;;;;;10.27;3.00;;;;;;;;;;6185802;23;20152;-72
2023/01/12 11:36:46;;;;;;;10.53;2.17;;;;;;;;;;6211955;23;20460;-73
2023/01/12 11:39:13;;;;;;;10.67;2.60;;;;;;;;;;6210089;23;20720;-73
2023/01/12 11:43:47;;;;;;;9.80;2.40;;;;;;;;;;6209545;23;20393;-72
2023/01/12 11:44:39;;;;;;;16.10;3.50;;;;;;;;;;6212367;23;20381;-74
2023/01/12 11:47:07;;;;;;;9.83;2.43;;;;;;;;;;6210873;23;20433;-74
2023/01/12 11:49:41;;;;;;;8.30;2.23;;;;;;;;;;6178511;23;20899;-74
2023/01/12 11:52:08;;;;;;;14.27;3.83;;;;;;;;;;6205277;23;20409;-73
2023/01/12 11:54:35;;;;;;;9.87;2.20;;;;;;;;;;6183521;23;20462;-72
2023/01/12 11:57:19;;;;;;;10.80;2.20;;;;;;;;;;6185955;23;20425;-73
2023/01/12 11:59:52;;;;;;;10.83;2.57;;;;;;;;;;6206950;23;20365;-73
2023/01/12 12:02:35;;;;;;;11.40;2.50;;;;;;;;;;6184540;23;20449;-73
2023/01/12 12:05:03;;;;;;;10.40;2.30;;;;;;;;;;6184864;23;20905;-74
2023/01/12 12:07:54;;;;;;;11.33;2.17;;;;;;;;;;6185462;23;20381;-73
2023/01/12 12:10:45;;;;;;;9.03;3.00;;;;;;;;;;6209202;23;20402;-74
2023/01/12 12:13:10;;;;;;;10.87;2.77;;;;;;;;;;6187117;23;20481;-73
2023/01/12 12:15:42;;;;;;;20.13;3.27;;;;;;;;;;6181908;23;20415;-73
2023/01/12 12:18:17;;;;;;;12.87;2.90;;;;;;;;;;6183111;23;20160;-74
2023/01/12 12:20:51;;;;;;;10.67;2.87;;;;;;;;;;6208748;23;20386;-73
2023/01/12 12:23:19;;;;;;;11.77;3.10;;;;;;;;;;6211343;23;20359;-73
2023/01/12 12:26:07;;;;;;;8.70;2.30;;;;;;;;;;6182766;23;20872;-73
2023/01/12 12:28:41;;;;;;;19.07;3.10;;;;;;;;;;6210169;23;20363;-72
2023/01/12 12:31:21;;;;;;;10.47;2.50;;;;;;;;;;6209915;23;20496;-73
2023/01/12 12:33:49;;;;;;;7.10;2.13;;;;;;;;;;6208834;23;20375;-74
2023/01/12 12:36:21;;;;;;;14.07;2.53;;;;;;;;;;6210021;23;20359;-73
2023/01/12 12:39:05;;;;;;;5.20;1.70;;;;;;;;;;6211024;23;20359;-73
2023/01/12 12:47:30;;;;;;;6.60;1.97;;;;;;;;;;6206815;23;20355;-72
2023/01/12 12:49:56;;;;;;;5.97;1.57;;;;;;;;;;6181258;23;20387;-73
2023/01/12 12:52:23;;;;;;;7.07;1.83;;;;;;;;;;6177353;23;20403;-74
2023/01/12 12:54:50;;;;;;;4.70;1.50;;;;;;;;;;6206379;23;20398;-74
2023/01/12 12:57:15;;;;;;;6.90;1.40;;;;;;;;;;6182853;23;20380;-73
2023/01/12 12:59:40;;;;;;;6.77;1.87;;;;;;;;;;6183401;23;20922;-73
2023/01/12 13:02:26;;;;;;;6.90;2.20;;;;;;;;;;6209335;23;20258;-73
2023/01/12 13:04:52;;;;;;;8.80;2.00;;;;;;;;;;6207801;23;20163;-73
2023/01/12 13:07:21;;;;;;;9.97;1.90;;;;;;;;;;6183857;23;20863;-73
2023/01/12 13:09:47;;;;;;;6.77;2.00;;;;;;;;;;6208188;23;20378;-73
2023/01/12 13:12:20;;;;;;;9.83;2.80;;;;;;;;;;6210369;23;20395;-73
2023/01/12 13:15:05;;;;;;;7.50;1.90;;;;;;;;;;6212417;23;20367;-73
2023/01/12 13:17:31;;;;;;;6.93;1.97;;;;;;;;;;6213443;23;20367;-73
2023/01/12 13:19:59;;;;;;;10.27;2.70;;;;;;;;;;6184835;23;20375;-73
2023/01/12 13:22:43;;;;;;;9.27;2.10;;;;;;;;;;6208867;23;20163;-73
2023/01/12 13:25:08;;;;;;;10.97;2.67;;;;;;;;;;6208541;23;20379;-74
2023/01/12 13:28:03;;;;;;;10.07;2.07;;;;;;;;;;6205593;23;20900;-73
2023/01/12 13:30:28;;;;;;;7.73;1.93;;;;;;;;;;6195109;23;20184;-72
2023/01/12 13:32:53;;;;;;;11.50;2.30;;;;;;;;;;6185130;23;20479;-73
2023/01/12 13:35:34;;;;;;;6.47;1.93;;;;;;;;;;6177827;23;20151;-73
2023/01/12 13:38:01;;;;;;;6.70;2.00;;;;;;;;;;6210112;23;20587;-74
2023/01/12 13:40:28;;;;;;;8.77;1.90;;;;;;;;;;6206980;23;20394;-72
2023/01/12 13:43:14;;;;;;;10.50;1.93;;;;;;;;;;6211521;23;20364;-73
2023/01/12 13:46:05;;;;;;;10.17;2.00;;;;;;;;;;6210416;23;20429;-75
2023/01/12 13:48:32;;;;;;;11.17;2.07;;;;;;;;;;6204990;23;20704;-72
2023/01/12 13:51:01;;;;;;;8.10;2.70;;;;;;;;;;6184858;23;20489;-73
2023/01/12 13:53:28;;;;;;;12.33;2.80;;;;;;;;;;6211164;23;20454;-73
2023/01/12 13:56:04;;;;;;;11.93;2.50;;;;;;;;;;6185576;23;20363;-72
2023/01/12 13:58:37;;;;;;;12.97;2.90;;;;;;;;;;6208727;23;20363;-73
2023/01/12 14:01:04;;;;;;;9.60;2.57;;;;;;;;;;6208284;23;21013;-73
2023/01/12 14:03:29;;;;;;;8.57;2.77;;;;;;;;;;6208471;23;20768;-72
2023/01/12 14:06:01;;;;;;;11.20;2.80;;;;;;;;;;6208063;23;20378;-73
2023/01/12 14:08:49;;;;;;;14.80;4.20;;;;;;;;;;6209432;23;20143;-72
2023/01/12 14:11:23;;;;;;;17.30;3.23;;;;;;;;;;6202557;23;20457;-72
2023/01/12 14:13:48;;;;;;;19.63;3.13;;;;;;;;;;6211510;23;20352;-72
2023/01/12 14:18:58;;;;;;;9.10;2.83;;;;;;;;;;6207956;23;20243;-72
2023/01/12 14:21:25;;;;;;;18.40;3.60;;;;;;;;;;6182590;23;20456;-72
2023/01/12 14:23:51;;;;;;;11.77;2.43;;;;;;;;;;6211418;23;20148;-72
2023/01/12 14:26:21;;;;;;;13.43;3.30;;;;;;;;;;6184691;23;20421;-72
2023/01/12 14:28:47;;;;;;;13.67;2.70;;;;;;;;;;6183951;23;20136;-73
2023/01/12 14:31:25;;;;;;;17.53;3.50;;;;;;;;;;6184505;23;20480;-73
2023/01/12 14:33:54;;;;;;;11.73;2.73;;;;;;;;;;6205794;23;20367;-72
2023/01/12 14:36:33;;;;;;;16.67;3.07;;;;;;;;;;6184157;23;20409;-74
2023/01/12 14:38:58;;;;;;;21.30;3.17;;;;;;;;;;6208037;23;20758;-72
2023/01/12 14:47:01;;;;;;;12.07;3.80;;;;;;;;;;6211310;23;20359;-73
2023/01/12 14:49:28;;;;;;;13.93;3.30;;;;;;;;;;6211158;23;20367;-73
2023/01/12 14:51:57;;;;;;;14.83;3.20;;;;;;;;;;6211084;23;20506;-73
2023/01/12 14:54:27;;;;;;;12.70;3.20;;;;;;;;;;6184096;23;20375;-72
2023/01/12 14:56:58;;;;;;;18.10;3.63;;;;;;;;;;6216319;23;20853;-72
2023/01/12 14:59:31;;;;;;;12.50;2.70;;;;;;;;;;6212282;23;20847;-73
2023/01/12 15:02:14;;;;;;;13.00;3.93;;;;;;;;;;6211917;23;20411;-72
2023/01/12 15:04:56;;;;;;;22.23;3.27;;;;;;;;;;6182234;23;20382;-72
2023/01/12 15:07:22;;;;;;;17.07;4.30;;;;;;;;;;6184427;23;20410;-74
2023/01/12 15:09:55;;;;;;;14.83;3.73;;;;;;;;;;6211448;23;20366;-73
2023/01/12 15:12:26;;;;;;;18.30;4.13;;;;;;;;;;6185400;23;20175;-72
2023/01/12 15:14:52;;;;;;;18.77;4.23;;;;;;;;;;6184767;23;20386;-74
2023/01/12 15:25:34;;;;;;;13.63;2.90;;;;;;;;;;6212961;23;20382;-72
2023/01/12 15:28:00;;;;;;;16.97;4.20;;;;;;;;;;6212150;23;20375;-72
2023/01/12 15:30:26;;;;;;;14.23;4.00;;;;;;;;;;6184488;23;20939;-73
2023/01/12 15:32:52;;;;;;;14.57;3.40;;;;;;;;;;6211320;23;20167;-73
2023/01/12 15:35:20;;;;;;;19.97;4.00;;;;;;;;;;6213560;23;20147;-72
2023/01/12 15:37:45;;;;;;;12.40;3.80;;;;;;;;;;6212521;23;20378;-73
2023/01/12 15:40:12;;;;;;;17.50;3.63;;;;;;;;;;6212370;23;20375;-73
2023/01/12 15:42:37;;;;;;;13.97;3.80;;;;;;;;;;6211815;23;20158;-73